Time;durP1;ratioP1;P1;durP2;ratioP2;P2;SDS_P1;SDS_P2;PMS_P1;PMS_P2;Temp;Humidity;BMP_temperature;BMP_pressure;BME280_temperature;BME280_humidity;BME280_pressure;Samples;Min_cycle;Max_cycle;Signal;HPM_P1;HPM_P2
2022/11/18 00:02:00;;;;;;;;;;;;;;;17.66;50.99;99741.84;102043;1329;61308;-82
2022/11/18 00:04:26;;;;;;;;;;;;;;;17.65;50.91;99744.18;102013;1323;61309;-82
2022/11/18 00:06:51;;;;;;;;;;;;;;;17.65;50.87;99747.39;101939;1322;61321;-82
2022/11/18 00:09:16;;;;;;;;;;;;;;;17.65;50.96;99748.46;101958;1326;61359;-82
2022/11/18 00:14:26;;;;;;;;;;;;;;;17.65;50.76;99752.20;102088;1326;61166;-81
2022/11/18 00:16:57;;;;;;;;;;;;;;;17.65;50.70;99753.67;102040;1326;61320;-81
2022/11/18 00:19:26;;;;;;;;;;;;;;;17.65;50.74;99754.88;102059;1329;75336;-83
2022/11/18 00:21:52;;;;;;;;;;;;;;;17.65;50.70;99759.33;102102;1325;61313;-83
2022/11/18 00:24:17;;;;;;;;;;;;;;;17.65;50.73;99765.22;101880;1331;61277;-82
2022/11/18 00:26:43;;;;;;;;;;;;;;;17.64;50.66;99766.31;101931;1326;61344;-82
2022/11/18 00:29:09;;;;;;;;;;;;;;;17.64;50.68;99765.08;101865;1331;61438;-82
2022/11/18 00:31:34;;;;;;;;;;;;;;;17.64;50.64;99763.49;101967;1320;61246;-82
2022/11/18 00:34:00;;;;;;;;;;;;;;;17.64;50.52;99756.93;102007;1328;61323;-82
2022/11/18 00:36:26;;;;;;;;;;;;;;;17.63;50.50;99761.58;101942;1328;61295;-83
2022/11/18 00:38:51;;;;;;;;;;;;;;;17.64;50.64;99771.16;101847;1329;61400;-83
2022/11/18 00:41:16;;;;;;;;;;;;;;;17.64;50.48;99769.58;101929;1326;62836;-82
2022/11/18 00:43:42;;;;;;;;;;;;;;;17.64;50.53;99774.73;101941;1332;61297;-83
2022/11/18 00:46:09;;;;;;;;;;;;;;;17.64;50.47;99773.85;101966;1328;61733;-83
2022/11/18 00:48:34;;;;;;;;;;;;;;;17.64;50.48;99774.38;101963;1332;61432;-83
2022/11/18 00:51:07;;;;;;;;;;;;;;;17.63;50.44;99774.23;101958;1328;61508;-83
2022/11/18 00:53:33;;;;;;;;;;;;;;;17.63;50.43;99771.58;101934;1328;75103;-82
2022/11/18 00:55:58;;;;;;;;;;;;;;;17.63;50.48;99773.00;101930;1334;61282;-82
2022/11/18 00:58:23;;;;;;;;;;;;;;;17.63;50.43;99782.80;101867;1328;61334;-83
2022/11/18 01:00:50;;;;;;;;;;;;;;;17.63;50.29;99785.84;101937;1330;61410;-83
2022/11/18 01:03:15;;;;;;;;;;;;;;;17.63;50.44;99785.13;101987;1330;61271;-83
2022/11/18 01:05:43;;;;;;;;;;;;;;;17.62;50.31;99780.18;101957;1328;74557;-82
2022/11/18 01:08:08;;;;;;;;;;;;;;;17.62;50.33;99777.67;101968;1332;61286;-82
2022/11/18 01:10:34;;;;;;;;;;;;;;;17.62;50.40;99778.57;102032;1326;61322;-82
2022/11/18 01:13:18;;;;;;;;;;;;;;;17.62;50.38;99785.70;101966;1328;61325;-82
2022/11/18 01:15:44;;;;;;;;;;;;;;;17.62;50.36;99782.53;101950;1329;74554;-82
2022/11/18 01:18:10;;;;;;;;;;;;;;;17.62;50.34;99778.25;101931;1328;61241;-82
2022/11/18 01:20:35;;;;;;;;;;;;;;;17.62;50.23;99772.39;101978;1328;61802;-81
2022/11/18 01:23:01;;;;;;;;;;;;;;;17.62;50.22;99769.55;102010;1325;61354;-82
2022/11/18 01:25:26;;;;;;;;;;;;;;;17.62;50.18;99772.75;102048;1326;61274;-82
2022/11/18 01:27:52;;;;;;;;;;;;;;;17.61;50.09;99773.84;102095;1332;61377;-82
2022/11/18 01:30:17;;;;;;;;;;;;;;;17.61;50.29;99768.52;101962;1326;61469;-83
2022/11/18 01:32:43;;;;;;;;;;;;;;;17.61;50.04;99775.63;102071;1325;61848;-82
2022/11/18 01:35:09;;;;;;;;;;;;;;;17.61;50.09;99775.80;101998;1325;61307;-82
2022/11/18 01:37:34;;;;;;;;;;;;;;;17.61;50.13;99772.61;102036;1327;61332;-82
2022/11/18 01:39:59;;;;;;;;;;;;;;;17.61;50.06;99771.72;102078;1328;61272;-81
2022/11/18 01:42:25;;;;;;;;;;;;;;;17.60;50.09;99763.77;102051;1329;61136;-82
2022/11/18 01:45:03;;;;;;;;;;;;;;;17.61;50.07;99767.13;102093;1326;61385;-82
2022/11/18 01:47:34;;;;;;;;;;;;;;;17.60;50.14;99764.83;102089;1325;72486;-82
2022/11/18 01:50:00;;;;;;;;;;;;;;;17.60;50.10;99768.76;102045;1325;75659;-82
2022/11/18 01:52:25;;;;;;;;;;;;;;;17.60;50.05;99758.96;101979;1328;61342;-83
2022/11/18 01:54:53;;;;;;;;;;;;;;;17.60;50.05;99756.11;102054;1319;61293;-82
2022/11/18 01:57:20;;;;;;;;;;;;;;;17.59;49.99;99759.00;102057;1326;61399;-82
2022/11/18 01:59:45;;;;;;;;;;;;;;;17.60;49.98;99761.61;102090;1325;61313;-82
2022/11/18 02:02:11;;;;;;;;;;;;;;;17.60;49.91;99754.90;102029;1327;61279;-82
2022/11/18 02:04:41;;;;;;;;;;;;;;;17.60;49.86;99750.41;102042;1327;61289;-82
2022/11/18 02:07:07;;;;;;;;;;;;;;;17.60;49.80;99752.56;102076;1332;72026;-82
2022/11/18 02:09:32;;;;;;;;;;;;;;;17.60;49.87;99751.14;102015;1331;61325;-82
2022/11/18 02:11:58;;;;;;;;;;;;;;;17.59;49.90;99754.36;102041;1332;61340;-82
2022/11/18 02:14:30;;;;;;;;;;;;;;;17.59;49.92;99763.64;102035;1326;61349;-82
2022/11/18 02:17:08;;;;;;;;;;;;;;;17.59;49.79;99768.08;101993;1329;73627;-82
2022/11/18 02:19:46;;;;;;;;;;;;;;;17.59;49.80;99764.50;102069;1326;74574;-82
2022/11/18 02:22:11;;;;;;;;;;;;;;;17.59;49.90;99766.69;102116;1325;61090;-82
2022/11/18 02:24:52;;;;;;;;;;;;;;;17.59;49.73;99772.23;102067;1325;61517;-83
2022/11/18 02:27:22;;;;;;;;;;;;;;;17.59;49.66;99775.75;102090;1326;72532;-82
2022/11/18 02:29:51;;;;;;;;;;;;;;;17.59;49.68;99778.63;101968;1328;74771;-82
2022/11/18 02:32:28;;;;;;;;;;;;;;;17.59;49.67;99780.37;102093;1332;61311;-82
2022/11/18 02:34:57;;;;;;;;;;;;;;;17.59;49.67;99791.07;102019;1333;61179;-82
2022/11/18 02:37:41;;;;;;;;;;;;;;;17.58;49.64;99792.49;102016;1318;71822;-82
2022/11/18 02:40:07;;;;;;;;;;;;;;;17.59;49.58;99795.36;102069;1310;74606;-82
2022/11/18 02:42:34;;;;;;;;;;;;;;;17.58;49.58;99793.76;102101;1326;61325;-82
2022/11/18 02:45:00;;;;;;;;;;;;;;;17.58;49.70;99792.02;102030;1327;61318;-82
2022/11/18 02:47:26;;;;;;;;;;;;;;;17.58;49.48;99793.95;102066;1327;61486;-81
2022/11/18 02:49:53;;;;;;;;;;;;;;;17.58;49.51;99790.75;102049;1326;61385;-83
2022/11/18 02:52:42;;;;;;;;;;;;;;;17.58;49.53;99788.27;102026;1329;61564;-82
2022/11/18 02:55:08;;;;;;;;;;;;;;;17.57;49.40;99785.49;101785;1334;61580;-82
2022/11/18 02:57:34;;;;;;;;;;;;;;;17.58;49.42;99791.31;101706;1338;61443;-83
2022/11/18 02:59:59;;;;;;;;;;;;;;;17.58;49.45;99792.22;101715;1334;61339;-83
2022/11/18 03:02:24;;;;;;;;;;;;;;;17.57;49.37;99794.89;101721;1334;61454;-82
2022/11/18 03:04:52;;;;;;;;;;;;;;;17.57;49.32;99797.59;101786;1332;59379;-82
2022/11/18 03:07:29;;;;;;;;;;;;;;;17.58;49.40;99799.68;101715;1342;61206;-83
2022/11/18 03:09:55;;;;;;;;;;;;;;;17.58;49.31;99798.98;101712;1333;74600;-82
2022/11/18 03:12:20;;;;;;;;;;;;;;;17.57;49.32;99790.10;101709;1334;61329;-81
2022/11/18 03:14:46;;;;;;;;;;;;;;;17.58;49.34;99785.80;101784;1332;61354;-82
2022/11/18 03:17:13;;;;;;;;;;;;;;;17.58;49.20;99785.08;101792;1337;61329;-82
2022/11/18 03:19:41;;;;;;;;;;;;;;;17.57;49.36;99780.90;101729;1333;61330;-82
2022/11/18 03:22:09;;;;;;;;;;;;;;;17.57;49.24;99783.02;101803;1333;61522;-82
2022/11/18 03:24:35;;;;;;;;;;;;;;;17.57;49.25;99789.39;101774;1325;61191;-82
2022/11/18 03:27:26;;;;;;;;;;;;;;;17.57;49.25;99785.50;101713;1338;61328;-82
2022/11/18 03:29:53;;;;;;;;;;;;;;;17.57;49.23;99786.04;101580;1340;74779;-83
2022/11/18 03:32:21;;;;;;;;;;;;;;;17.57;49.22;99784.41;101905;1325;61260;-83
2022/11/18 03:34:48;;;;;;;;;;;;;;;17.57;49.20;99780.89;102032;1332;61280;-82
2022/11/18 03:37:13;;;;;;;;;;;;;;;17.57;49.27;99777.33;102057;1327;73796;-82
2022/11/18 03:39:40;;;;;;;;;;;;;;;17.57;49.24;99769.33;102005;1326;61411;-83
2022/11/18 03:42:07;;;;;;;;;;;;;;;17.57;49.20;99768.79;102039;1329;61352;-83
2022/11/18 03:44:34;;;;;;;;;;;;;;;17.57;49.29;99775.39;102032;1328;61245;-82
2022/11/18 03:47:07;;;;;;;;;;;;;;;17.57;49.17;99778.56;102088;1327;61183;-83
2022/11/18 03:49:35;;;;;;;;;;;;;;;17.57;49.26;99779.45;102001;1327;74604;-82
2022/11/18 03:52:10;;;;;;;;;;;;;;;17.57;49.02;99779.83;102043;1329;61333;-83
2022/11/18 03:54:36;;;;;;;;;;;;;;;17.57;49.03;99781.80;102057;1325;61337;-82
2022/11/18 03:57:08;;;;;;;;;;;;;;;17.57;49.05;99784.27;102058;1326;61273;-81
2022/11/18 03:59:33;;;;;;;;;;;;;;;17.56;49.16;99788.57;102064;1329;75513;-82
2022/11/18 04:02:07;;;;;;;;;;;;;;;17.57;49.22;99785.70;102116;1325;61481;-82
2022/11/18 04:04:33;;;;;;;;;;;;;;;17.57;49.13;99785.00;102050;1325;61231;-82
2022/11/18 04:07:17;;;;;;;;;;;;;;;17.57;49.04;99788.70;101953;1326;61389;-82
2022/11/18 04:09:48;;;;;;;;;;;;;;;17.56;49.14;99791.79;102101;1326;74602;-82
2022/11/18 04:12:14;;;;;;;;;;;;;;;17.56;49.11;99796.95;102049;1327;61202;-82
2022/11/18 04:14:41;;;;;;;;;;;;;;;17.56;49.05;99793.75;102067;1325;61421;-82
2022/11/18 04:17:13;;;;;;;;;;;;;;;17.56;49.04;99793.94;101965;1328;61324;-82
2022/11/18 04:19:39;;;;;;;;;;;;;;;17.56;49.06;99795.18;102041;1326;75782;-82
2022/11/18 04:22:04;;;;;;;;;;;;;;;17.56;49.09;99799.27;102052;1330;61317;-82
2022/11/18 04:24:30;;;;;;;;;;;;;;;17.56;48.96;99801.05;102065;1328;61385;-83
2022/11/18 04:26:55;;;;;;;;;;;;;;;17.56;48.97;99800.35;101951;1332;61317;-83
2022/11/18 04:29:20;;;;;;;;;;;;;;;17.56;48.92;99804.42;101980;1328;61324;-82
2022/11/18 04:31:46;;;;;;;;;;;;;;;17.56;48.84;99807.13;102055;1327;61284;-82
2022/11/18 04:34:11;;;;;;;;;;;;;;;17.55;48.95;99804.66;102094;1327;61719;-82
2022/11/18 04:36:37;;;;;;;;;;;;;;;17.56;49.04;99816.89;102055;1325;61334;-82
2022/11/18 04:39:02;;;;;;;;;;;;;;;17.55;48.98;99818.36;102025;1329;61320;-82
2022/11/18 04:44:26;;;;;;;;;;;;;;;17.55;48.78;99813.23;101916;1332;74501;-82
2022/11/18 04:46:52;;;;;;;;;;;;;;;17.55;48.95;99819.66;102028;1326;61323;-83
2022/11/18 04:49:17;;;;;;;;;;;;;;;17.55;48.93;99815.91;102033;1330;61297;-82
2022/11/18 04:51:43;;;;;;;;;;;;;;;17.55;48.92;99820.58;102094;1326;61329;-82
2022/11/18 04:54:09;;;;;;;;;;;;;;;17.54;48.94;99821.84;102051;1332;61465;-82
2022/11/18 04:56:34;;;;;;;;;;;;;;;17.54;48.87;99823.45;102132;1332;61398;-83
2022/11/18 04:59:00;;;;;;;;;;;;;;;17.53;48.92;99829.52;102014;1326;61411;-82
2022/11/18 05:01:26;;;;;;;;;;;;;;;17.53;48.88;99827.64;102037;1329;61165;-82
2022/11/18 05:03:52;;;;;;;;;;;;;;;17.52;48.83;99836.40;102014;1326;61408;-82
2022/11/18 05:06:17;;;;;;;;;;;;;;;17.52;48.83;99843.11;102045;1326;61412;-83
2022/11/18 05:08:42;;;;;;;;;;;;;;;17.52;48.65;99843.52;102051;1332;61318;-82
2022/11/18 05:13:52;;;;;;;;;;;;;;;17.52;48.72;99843.55;102067;1316;61335;-83
2022/11/18 05:16:18;;;;;;;;;;;;;;;17.51;48.69;99844.69;101958;1329;61714;-82
2022/11/18 05:18:44;;;;;;;;;;;;;;;17.51;48.64;99845.38;102020;1333;61319;-83
2022/11/18 05:21:09;;;;;;;;;;;;;;;17.51;48.54;99835.61;102094;1330;61830;-81
2022/11/18 05:23:35;;;;;;;;;;;;;;;17.50;48.52;99841.13;102048;1327;61327;-82
2022/11/18 05:26:04;;;;;;;;;;;;;;;17.50;48.32;99839.21;102090;1327;61413;-81
2022/11/18 05:28:29;;;;;;;;;;;;;;;17.50;48.36;99842.63;102051;1332;73572;-82
2022/11/18 05:30:55;;;;;;;;;;;;;;;17.50;48.37;99844.40;101939;1320;61374;-82
2022/11/18 05:33:20;;;;;;;;;;;;;;;17.49;48.41;99849.92;101989;1332;61406;-82
2022/11/18 05:35:46;;;;;;;;;;;;;;;17.50;48.34;99848.10;101944;1332;61490;-82
2022/11/18 05:38:11;;;;;;;;;;;;;;;17.51;48.20;99844.30;101954;1328;61327;-82
2022/11/18 05:40:36;;;;;;;;;;;;;;;17.53;48.21;99842.55;101933;1320;61315;-82
2022/11/18 05:43:11;;;;;;;;;;;;;;;17.54;48.18;99848.31;101924;1320;59326;-82
2022/11/18 05:45:39;;;;;;;;;;;;;;;17.57;48.24;99849.04;101884;1321;61392;-82
2022/11/18 05:48:05;;;;;;;;;;;;;;;17.60;48.09;99854.19;101935;1319;61314;-83
2022/11/18 05:50:33;;;;;;;;;;;;;;;17.61;47.99;99858.02;101377;1313;771214;-82
2022/11/18 05:52:58;;;;;;;;;;;;;;;17.60;47.92;99856.11;102507;1318;74505;-81
2022/11/18 05:55:24;;;;;;;;;;;;;;;17.58;47.93;99859.27;101935;1319;61392;-82
2022/11/18 05:57:50;;;;;;;;;;;;;;;17.56;47.84;99857.81;101499;1320;61415;-81
2022/11/18 06:00:16;;;;;;;;;;;;;;;17.55;47.97;99863.19;101245;1312;61524;-82
2022/11/18 06:02:41;;;;;;;;;;;;;;;17.56;47.86;99857.64;101217;1318;61262;-84
2022/11/18 06:05:07;;;;;;;;;;;;;;;17.55;47.81;99855.40;101417;1318;61705;-82
2022/11/18 06:07:56;;;;;;;;;;;;;;;17.54;47.97;99860.27;101471;1318;61369;-82
2022/11/18 06:10:22;;;;;;;;;;;;;;;17.53;47.80;99864.27;101131;1324;61316;-82
2022/11/18 06:13:14;;;;;;;;;;;;;;;17.54;47.95;99861.36;101373;1326;61192;-80
2022/11/18 06:15:40;;;;;;;;;;;;;;;17.54;47.81;99857.98;100843;1328;74569;-81
2022/11/18 06:18:07;;;;;;;;;;;;;;;17.54;47.88;99851.21;100869;1329;61352;-82
2022/11/18 06:20:34;;;;;;;;;;;;;;;17.53;47.83;99857.31;100746;1332;61789;-81
2022/11/18 06:23:00;;;;;;;;;;;;;;;17.53;47.80;99856.60;101227;1327;71554;-81
2022/11/18 06:25:26;;;;;;;;;;;;;;;17.53;47.83;99862.61;100855;1331;61215;-81
2022/11/18 06:27:51;;;;;;;;;;;;;;;17.54;47.83;99860.27;100869;1332;61767;-81
2022/11/18 06:30:17;;;;;;;;;;;;;;;17.54;47.68;99863.99;100948;1330;61340;-81
2022/11/18 06:32:45;;;;;;;;;;;;;;;17.55;47.59;99865.51;101089;1331;61795;-81
2022/11/18 06:35:11;;;;;;;;;;;;;;;17.56;47.50;99869.71;101035;1330;73639;-82
2022/11/18 06:37:37;;;;;;;;;;;;;;;17.57;47.50;99873.39;100765;1331;61331;-82
2022/11/18 06:40:03;;;;;;;;;;;;;;;17.58;47.60;99870.11;101030;1331;61298;-81
2022/11/18 06:45:12;;;;;;;;;;;;;;;17.59;47.37;99863.27;101017;1328;72722;-80
2022/11/18 06:47:38;;;;;;;;;;;;;;;17.60;47.42;99864.66;101083;1321;61646;-81
2022/11/18 06:50:03;;;;;;;;;;;;;;;17.61;47.53;99861.24;101212;1319;61339;-81
2022/11/18 06:52:30;;;;;;;;;;;;;;;17.62;47.34;99853.49;101187;1318;61315;-82
2022/11/18 06:54:56;;;;;;;;;;;;;;;17.62;47.29;99853.84;101233;1317;61424;-81
2022/11/18 06:57:21;;;;;;;;;;;;;;;17.63;47.30;99857.33;101379;1317;61502;-83
2022/11/18 06:59:52;;;;;;;;;;;;;;;17.66;47.57;99858.91;101491;1318;74477;-82
2022/11/18 07:02:18;;;;;;;;;;;;;;;17.68;47.57;99860.70;101590;1310;61236;-82
2022/11/18 07:04:44;;;;;;;;;;;;;;;17.65;47.42;99857.36;101406;1318;61188;-82
2022/11/18 07:07:11;;;;;;;;;;;;;;;17.64;47.60;99855.15;101297;1318;61454;-82
2022/11/18 07:09:36;;;;;;;;;;;;;;;17.64;47.58;99854.63;101398;1319;61534;-81
2022/11/18 07:12:02;;;;;;;;;;;;;;;17.63;47.50;99858.40;101359;1313;61318;-81
2022/11/18 07:14:27;;;;;;;;;;;;;;;17.63;47.59;99855.77;101372;1319;61322;-81
2022/11/18 07:16:53;;;;;;;;;;;;;;;17.62;47.67;99850.64;101395;1318;61308;-82
2022/11/18 07:19:19;;;;;;;;;;;;;;;17.62;47.38;99854.17;101399;1318;63539;-81
2022/11/18 07:21:44;;;;;;;;;;;;;;;17.62;47.48;99853.13;101539;1318;61336;-82
2022/11/18 07:24:11;;;;;;;;;;;;;;;17.62;47.38;99850.46;101448;1318;60799;-81
2022/11/18 07:26:36;;;;;;;;;;;;;;;17.63;47.42;99852.03;101448;1319;61369;-81
2022/11/18 07:29:02;;;;;;;;;;;;;;;17.63;47.35;99855.23;101460;1318;61241;-80
2022/11/18 07:31:28;;;;;;;;;;;;;;;17.64;47.26;99848.75;101353;1320;61429;-81
2022/11/18 07:33:54;;;;;;;;;;;;;;;17.65;47.31;99851.67;101240;1319;63368;-81
2022/11/18 07:36:20;;;;;;;;;;;;;;;17.67;47.31;99846.39;101268;1318;61363;-81
2022/11/18 07:38:45;;;;;;;;;;;;;;;17.68;47.24;99844.30;101188;1319;61277;-81
2022/11/18 07:41:12;;;;;;;;;;;;;;;17.70;47.28;99841.34;101167;1321;61339;-81
2022/11/18 07:43:37;;;;;;;;;;;;;;;17.72;47.17;99842.80;101277;1320;61307;-81
2022/11/18 07:46:14;;;;;;;;;;;;;;;17.73;47.22;99843.58;101468;1319;61351;-81
2022/11/18 07:48:40;;;;;;;;;;;;;;;17.75;47.26;99836.92;101441;1319;61219;-81
2022/11/18 07:51:07;;;;;;;;;;;;;;;17.76;47.26;99834.33;101313;1316;61565;-81
2022/11/18 07:53:33;;;;;;;;;;;;;;;17.78;47.20;99831.21;101294;1318;75858;-82
2022/11/18 07:55:58;;;;;;;;;;;;;;;17.79;47.27;99820.61;101132;1315;61321;-82
2022/11/18 07:58:26;;;;;;;;;;;;;;;17.79;47.09;99820.05;101157;1318;61280;-82
2022/11/18 08:00:51;;;;;;;;;;;;;;;17.74;47.13;99815.81;101200;1319;61151;-82
2022/11/18 08:03:19;;;;;;;;;;;;;;;17.71;47.07;99813.52;101293;1321;61412;-82
2022/11/18 08:05:44;;;;;;;;;;;;;;;17.63;46.94;99816.06;101204;1321;61362;-82
2022/11/18 08:08:10;;;;;;;;;;;;;;;17.55;47.04;99812.01;101222;1320;61409;-83
2022/11/18 08:10:36;;;;;;;;;;;;;;;17.52;47.20;99810.23;101362;1320;61317;-83
2022/11/18 08:13:01;;;;;;;;;;;;;;;17.49;47.11;99815.11;101307;1320;61778;-82
2022/11/18 08:15:27;;;;;;;;;;;;;;;17.46;47.12;99818.73;101348;1320;61466;-82
2022/11/18 08:17:52;;;;;;;;;;;;;;;17.47;47.15;99818.42;101286;1320;61420;-82
2022/11/18 08:20:18;;;;;;;;;;;;;;;17.50;47.45;99817.14;101347;1319;61376;-83
2022/11/18 08:22:43;;;;;;;;;;;;;;;17.54;47.32;99815.46;101416;1313;61375;-82
2022/11/18 08:25:09;;;;;;;;;;;;;;;17.58;47.45;99812.13;101537;1319;61935;-83
2022/11/18 08:27:34;;;;;;;;;;;;;;;17.61;47.35;99816.91;101460;1312;61277;-82
2022/11/18 08:30:00;;;;;;;;;;;;;;;17.64;47.35;99817.92;101369;1313;61346;-81
2022/11/18 08:32:25;;;;;;;;;;;;;;;17.67;47.24;99826.06;101319;1316;61306;-82
2022/11/18 08:34:51;;;;;;;;;;;;;;;17.69;47.43;99828.95;101401;1321;61317;-82
2022/11/18 08:37:16;;;;;;;;;;;;;;;17.72;47.38;99827.30;101417;1318;61752;-82
2022/11/18 08:39:42;;;;;;;;;;;;;;;17.74;47.35;99830.20;101421;1313;63428;-82
2022/11/18 08:42:08;;;;;;;;;;;;;;;17.76;47.35;99825.23;101628;1318;61362;-82
2022/11/18 08:44:35;;;;;;;;;;;;;;;17.79;47.50;99828.27;101617;1317;61298;-82
2022/11/18 08:47:03;;;;;;;;;;;;;;;17.80;47.32;99828.70;101535;1318;72670;-81
2022/11/18 08:49:28;;;;;;;;;;;;;;;17.82;47.36;99829.13;101462;1316;74392;-81
2022/11/18 08:51:55;;;;;;;;;;;;;;;17.83;47.40;99831.85;101409;1316;61316;-81
2022/11/18 08:54:20;;;;;;;;;;;;;;;17.85;47.36;99829.08;101506;1318;61424;-81
2022/11/18 08:56:46;;;;;;;;;;;;;;;17.85;47.42;99829.55;101535;1310;61408;-81
2022/11/18 08:59:12;;;;;;;;;;;;;;;17.87;47.44;99829.12;101596;1310;61478;-81
2022/11/18 09:01:37;;;;;;;;;;;;;;;17.87;47.43;99825.00;101457;1316;61316;-81
2022/11/18 09:04:03;;;;;;;;;;;;;;;17.87;47.32;99821.41;101312;1316;61308;-82
2022/11/18 09:06:29;;;;;;;;;;;;;;;17.87;47.39;99824.45;101368;1312;61275;-80
2022/11/18 09:08:56;;;;;;;;;;;;;;;17.75;47.01;99819.09;101396;1316;61338;-81
2022/11/18 09:11:22;;;;;;;;;;;;;;;17.64;47.33;99821.32;101473;1315;61357;-82
2022/11/18 09:13:55;;;;;;;;;;;;;;;17.60;47.36;99819.09;101336;1319;61806;-82
2022/11/18 09:16:22;;;;;;;;;;;;;;;17.59;47.48;99823.81;101547;1313;61701;-82
2022/11/18 09:18:48;;;;;;;;;;;;;;;17.54;47.54;99828.59;101441;1313;71649;-82
2022/11/18 09:21:15;;;;;;;;;;;;;;;17.53;47.64;99821.52;101750;1317;61405;-82
2022/11/18 09:23:40;;;;;;;;;;;;;;;17.53;47.62;99822.05;101374;1313;61594;-82
2022/11/18 09:26:06;;;;;;;;;;;;;;;17.53;47.68;99823.70;101475;1310;61324;-82
2022/11/18 09:28:32;;;;;;;;;;;;;;;17.52;47.53;99820.91;101252;1312;61317;-83
2022/11/18 09:30:59;;;;;;;;;;;;;;;17.52;47.63;99814.88;101327;1319;61939;-82
2022/11/18 09:33:24;;;;;;;;;;;;;;;17.53;47.72;99812.81;101356;1316;61323;-83
2022/11/18 09:35:50;;;;;;;;;;;;;;;17.56;47.83;99802.14;101421;1316;61294;-83
2022/11/18 09:38:15;;;;;;;;;;;;;;;17.59;47.95;99800.13;101423;1316;61441;-81
2022/11/18 09:40:47;;;;;;;;;;;;;;;17.60;47.90;99794.40;101305;1312;61327;-81
2022/11/18 09:43:20;;;;;;;;;;;;;;;17.59;47.86;99783.20;101430;1318;74604;-82
2022/11/18 09:45:46;;;;;;;;;;;;;;;17.59;47.85;99775.23;101470;1315;61224;-81
2022/11/18 09:48:16;;;;;;;;;;;;;;;17.60;47.84;99771.96;101424;1319;61359;-81
2022/11/18 09:50:43;;;;;;;;;;;;;;;17.62;47.89;99767.92;101339;1319;72697;-81
2022/11/18 09:53:08;;;;;;;;;;;;;;;17.64;47.81;99755.87;101389;1319;74615;-81
2022/11/18 09:55:35;;;;;;;;;;;;;;;17.64;47.98;99745.88;101437;1313;61404;-81
2022/11/18 09:58:01;;;;;;;;;;;;;;;17.65;48.15;99740.67;101291;1315;61257;-81
2022/11/18 10:00:30;;;;;;;;;;;;;;;17.65;48.11;99739.02;101370;1316;61445;-81
2022/11/18 10:03:06;;;;;;;;;;;;;;;17.63;47.94;99730.80;101162;1318;74872;-82
2022/11/18 10:05:58;;;;;;;;;;;;;;;17.52;47.86;99722.16;101279;1313;61326;-81
2022/11/18 10:08:26;;;;;;;;;;;;;;;17.37;47.67;99709.96;101253;1317;61155;-81
2022/11/18 10:11:10;;;;;;;;;;;;;;;17.20;47.85;99706.71;102892;1317;73846;-81
2022/11/18 10:13:38;;;;;;;;;;;;;;;17.10;47.80;99705.52;102815;1320;74390;-81
2022/11/18 10:16:04;;;;;;;;;;;;;;;17.06;48.00;99708.05;102927;1317;59886;-82
2022/11/18 10:18:33;;;;;;;;;;;;;;;17.09;48.13;99703.02;102976;1325;59431;-81
2022/11/18 10:21:06;;;;;;;;;;;;;;;17.13;48.21;99695.28;102951;1327;73589;-82
2022/11/18 10:23:32;;;;;;;;;;;;;;;17.19;48.27;99686.33;101645;1315;75837;-80
2022/11/18 10:25:58;;;;;;;;;;;;;;;17.24;48.30;99682.43;101377;1314;61270;-81
2022/11/18 10:28:24;;;;;;;;;;;;;;;17.31;48.44;99681.60;101399;1312;61429;-81
2022/11/18 10:30:50;;;;;;;;;;;;;;;17.36;48.47;99680.30;101429;1319;61316;-81
2022/11/18 10:33:34;;;;;;;;;;;;;;;17.41;48.45;99673.68;101285;1312;61329;-81
2022/11/18 10:36:10;;;;;;;;;;;;;;;17.48;48.61;99668.98;101266;1318;61781;-82
2022/11/18 10:38:39;;;;;;;;;;;;;;;17.52;48.67;99667.06;101250;1312;61285;-81
2022/11/18 10:41:05;;;;;;;;;;;;;;;17.54;48.75;99655.86;101459;1317;72831;-80
2022/11/18 10:43:50;;;;;;;;;;;;;;;17.57;48.82;99653.66;101360;1313;61381;-80
2022/11/18 10:46:25;;;;;;;;;;;;;;;17.60;48.79;99652.59;101527;1309;61673;-80
2022/11/18 10:49:08;;;;;;;;;;;;;;;17.56;48.60;99640.55;101549;1316;61319;-82
2022/11/18 10:51:34;;;;;;;;;;;;;;;17.51;48.55;99637.95;101410;1309;72614;-81
2022/11/18 10:54:21;;;;;;;;;;;;;;;17.48;48.50;99642.96;102725;1316;61398;-80
2022/11/18 10:56:52;;;;;;;;;;;;;;;17.45;48.45;99640.54;101535;1312;63071;-81
2022/11/18 10:59:18;;;;;;;;;;;;;;;17.46;48.52;99634.73;101502;1318;61346;-82
2022/11/18 11:01:43;;;;;;;;;;;;;;;17.48;48.47;99632.50;101873;1316;61409;-82
2022/11/18 11:04:19;;;;;;;;;;;;;;;17.44;48.11;99633.33;101918;1319;61530;-82
2022/11/18 11:06:48;;;;;;;;;;;;;;;17.33;48.02;99633.77;102066;1320;61106;-83
2022/11/18 11:09:14;;;;;;;;;;;;;;;17.28;48.08;99628.80;102098;1316;59527;-82
2022/11/18 11:12:00;;;;;;;;;;;;;;;17.30;48.23;99628.48;102160;1321;59918;-82
2022/11/18 11:14:25;;;;;;;;;;;;;;;17.31;48.06;99633.42;102050;1319;74533;-81
2022/11/18 11:16:58;;;;;;;;;;;;;;;17.28;48.02;99631.30;102096;1316;61452;-81
2022/11/18 11:19:24;;;;;;;;;;;;;;;17.25;47.83;99629.84;101986;1317;61412;-81
2022/11/18 11:21:50;;;;;;;;;;;;;;;17.27;47.97;99633.30;101988;1319;73578;-81
2022/11/18 11:24:15;;;;;;;;;;;;;;;17.30;47.87;99637.70;101952;1313;60921;-81
2022/11/18 11:26:45;;;;;;;;;;;;;;;17.33;47.83;99644.30;102044;1319;61433;-81
2022/11/18 11:29:24;;;;;;;;;;;;;;;17.34;47.82;99639.91;102022;1320;61202;-81
2022/11/18 11:31:49;;;;;;;;;;;;;;;17.34;47.70;99636.35;101996;1313;72071;-81
2022/11/18 11:34:31;;;;;;;;;;;;;;;17.34;47.69;99628.15;101989;1317;61291;-79
2022/11/18 11:36:56;;;;;;;;;;;;;;;17.34;47.76;99625.12;101907;1327;60913;-82
2022/11/18 11:39:25;;;;;;;;;;;;;;;17.33;47.61;99632.84;101984;1317;61336;-82
2022/11/18 11:41:54;;;;;;;;;;;;;;;17.34;47.62;99629.95;101989;1316;72485;-80
2022/11/18 11:44:26;;;;;;;;;;;;;;;17.35;47.76;99624.32;101923;1327;73797;-81
2022/11/18 11:49:48;;;;;;;;;;;;;;;17.35;47.60;99610.12;101946;1318;61269;-80
2022/11/18 11:52:16;;;;;;;;;;;;;;;17.37;47.69;99613.17;102048;1312;72649;-83
2022/11/18 11:54:44;;;;;;;;;;;;;;;17.40;47.71;99616.00;101939;1320;74566;-82
2022/11/18 11:57:09;;;;;;;;;;;;;;;17.41;47.67;99616.98;101965;1317;59873;-82
2022/11/18 11:59:51;;;;;;;;;;;;;;;17.37;47.52;99611.57;102100;1318;61439;-82
2022/11/18 12:02:24;;;;;;;;;;;;;;;17.34;47.53;99606.98;102007;1316;72722;-82
2022/11/18 12:04:57;;;;;;;;;;;;;;;17.25;47.28;99596.62;102154;1323;74887;-82
2022/11/18 12:07:24;;;;;;;;;;;;;;;17.18;47.37;99598.22;102172;1328;61112;-81
2022/11/18 12:10:08;;;;;;;;;;;;;;;17.16;47.40;99596.77;102263;1320;61229;-81
2022/11/18 12:12:41;;;;;;;;;;;;;;;17.14;47.41;99585.73;102240;1312;72200;-81
2022/11/18 12:15:24;;;;;;;;;;;;;;;17.15;47.42;99590.45;102854;1326;73744;-82
2022/11/18 12:17:59;;;;;;;;;;;;;;;17.18;47.42;99594.16;102927;1329;60972;-82
2022/11/18 12:20:38;;;;;;;;;;;;;;;17.18;47.45;99601.61;102073;1320;61742;-82
2022/11/18 12:23:19;;;;;;;;;;;;;;;17.16;47.48;99601.39;101870;1328;73607;-81
2022/11/18 12:25:47;;;;;;;;;;;;;;;17.11;47.27;99596.97;102014;1316;75563;-80
2022/11/18 12:28:23;;;;;;;;;;;;;;;17.12;47.37;99593.55;102007;1317;61012;-81
2022/11/18 12:30:48;;;;;;;;;;;;;;;17.15;47.43;99596.84;102455;1320;61245;-81
2022/11/18 12:33:14;;;;;;;;;;;;;;;17.20;47.62;99594.20;101855;1321;61343;-82
2022/11/18 12:35:40;;;;;;;;;;;;;;;17.25;47.70;99587.75;101858;1320;61439;-81
2022/11/18 12:38:07;;;;;;;;;;;;;;;17.28;47.70;99583.45;101932;1326;61372;-81
2022/11/18 12:40:39;;;;;;;;;;;;;;;17.26;47.56;99586.56;101930;1317;61505;-82
2022/11/18 12:45:50;;;;;;;;;;;;;;;17.30;47.68;99582.92;101920;1313;74407;-82
2022/11/18 12:48:22;;;;;;;;;;;;;;;17.33;47.63;99579.86;102600;1333;61506;-82
2022/11/18 12:50:48;;;;;;;;;;;;;;;17.34;47.67;99572.14;101955;1326;61286;-82
2022/11/18 12:53:34;;;;;;;;;;;;;;;17.35;47.62;99568.34;101985;1329;61327;-82
2022/11/18 12:56:00;;;;;;;;;;;;;;;17.33;47.61;99572.95;101926;1328;76129;-82
2022/11/18 12:58:25;;;;;;;;;;;;;;;17.29;47.48;99581.61;101953;1319;61449;-82